createdAt,value
2023-01-03T00:00:12.608Z,96.72
2023-01-03T00:01:12.605Z,96.52
2023-01-03T00:02:12.650Z,97.08
2023-01-03T00:03:12.555Z,97.14
2023-01-03T00:04:12.759Z,96.93
2023-01-03T00:05:12.553Z,97.03
2023-01-03T00:06:12.927Z,96.52
2023-01-03T00:07:12.539Z,96.62
2023-01-03T00:08:12.536Z,97.24
2023-01-03T00:09:12.529Z,97.03
2023-01-03T00:10:12.541Z,97.34
2023-01-03T00:11:12.525Z,97.34
2023-01-03T00:12:12.516Z,96.83
2023-01-03T00:13:12.523Z,97.14
2023-01-03T00:14:12.527Z,96.93
2023-01-03T00:15:12.508Z,97.14
2023-01-03T00:16:12.502Z,97.28
2023-01-03T00:17:12.681Z,97.18
2023-01-03T00:18:12.495Z,97.39
2023-01-03T00:19:12.497Z,97.28
2023-01-03T00:20:12.489Z,97.28
2023-01-03T00:21:12.486Z,96.97
2023-01-03T00:22:12.500Z,97.08
2023-01-03T00:23:12.472Z,97.39
2023-01-03T00:24:12.468Z,97.60
2023-01-03T00:25:12.471Z,97.28
2023-01-03T00:26:12.459Z,97.80
2023-01-03T00:27:12.460Z,97.49
2023-01-03T00:28:12.452Z,97.90
2023-01-03T00:29:12.443Z,97.60
2023-01-03T00:30:12.445Z,97.69
2023-01-03T00:31:12.487Z,97.69
2023-01-03T00:32:12.449Z,97.80
2023-01-03T00:33:12.433Z,97.96
2023-01-03T00:34:12.444Z,98.27
2023-01-03T00:35:12.439Z,97.39
2023-01-03T00:36:12.415Z,97.44
2023-01-03T00:37:12.418Z,97.03
2023-01-03T00:38:12.435Z,96.97
2023-01-03T00:39:12.557Z,97.18
2023-01-03T00:40:12.403Z,97.18
2023-01-03T00:41:12.405Z,97.44
2023-01-03T00:42:12.399Z,97.34
2023-01-03T00:43:12.394Z,97.14
2023-01-03T00:44:12.386Z,96.97
2023-01-03T00:45:17.592Z,97.39
2023-01-03T00:46:12.412Z,97.34
2023-01-03T00:47:12.374Z,97.39
2023-01-03T00:48:12.384Z,96.97
2023-01-03T00:49:12.371Z,97.55
2023-01-03T00:50:12.363Z,97.44
2023-01-03T00:51:12.356Z,97.28
2023-01-03T00:52:12.357Z,97.55
2023-01-03T00:53:12.352Z,96.83
2023-01-03T00:54:12.367Z,97.14
2023-01-03T00:55:12.339Z,97.39
2023-01-03T00:56:12.342Z,97.24
2023-01-03T00:57:12.339Z,97.28
2023-01-03T00:58:12.328Z,96.97
2023-01-03T00:59:12.344Z,97.18
2023-01-03T01:00:12.326Z,97.39
2023-01-03T01:01:12.487Z,97.08
2023-01-03T01:02:12.446Z,96.88
2023-01-03T01:03:12.557Z,97.28
2023-01-03T01:04:12.303Z,96.88
2023-01-03T01:05:12.317Z,97.28
2023-01-03T01:06:12.298Z,96.97
2023-01-03T01:07:12.289Z,96.67
2023-01-03T01:08:12.287Z,97.18
2023-01-03T01:09:12.282Z,96.97
2023-01-03T01:10:12.294Z,96.56
2023-01-03T01:11:12.274Z,96.97
2023-01-03T01:12:12.271Z,96.88
2023-01-03T01:13:12.270Z,96.88
2023-01-03T01:14:12.262Z,97.18
2023-01-03T01:15:12.261Z,96.97
2023-01-03T01:16:12.398Z,96.77
2023-01-03T01:17:12.251Z,97.18
2023-01-03T01:18:12.247Z,96.97
2023-01-03T01:20:12.261Z,96.97
2023-01-03T01:21:12.238Z,96.97
2023-01-03T01:22:12.233Z,96.67
2023-01-03T01:23:12.226Z,96.77
2023-01-03T01:24:15.974Z,96.25
2023-01-03T01:25:12.216Z,96.67
2023-01-03T01:26:12.226Z,96.25
2023-01-03T01:27:12.209Z,95.99
2023-01-03T01:28:12.201Z,96.30
2023-01-03T01:29:12.214Z,96.30
2023-01-03T01:30:12.198Z,96.20
2023-01-03T01:31:12.210Z,96.50
2023-01-03T01:32:12.188Z,96.71
2023-01-03T01:33:12.177Z,96.81
2023-01-03T01:34:12.179Z,96.92
2023-01-03T01:35:12.183Z,96.20
2023-01-03T01:36:12.171Z,96.61
2023-01-03T01:37:12.163Z,96.09
2023-01-03T01:38:12.161Z,96.09
2023-01-03T01:39:12.361Z,96.71
2023-01-03T01:40:12.153Z,96.30
2023-01-03T01:41:12.146Z,96.30
2023-01-03T01:42:18.223Z,96.81
2023-01-03T01:43:12.137Z,96.41
2023-01-03T01:44:12.140Z,96.71
2023-01-03T01:45:12.162Z,96.20
2023-01-03T01:46:12.179Z,96.41
2023-01-03T01:47:12.119Z,95.93
2023-01-03T01:48:12.468Z,96.55
2023-01-03T01:49:12.111Z,96.55
2023-01-03T01:50:12.127Z,96.41
2023-01-03T01:51:12.103Z,96.30
2023-01-03T01:52:12.106Z,96.30
2023-01-03T01:53:12.100Z,96.50
2023-01-03T01:54:12.092Z,96.20
2023-01-03T01:55:12.094Z,96.61
2023-01-03T01:56:12.085Z,96.81
2023-01-03T01:57:12.077Z,96.50
2023-01-03T01:58:12.099Z,95.37
2023-01-03T01:59:12.077Z,94.65
2023-01-03T02:00:12.067Z,94.49
2023-01-03T02:01:12.160Z,93.35
2023-01-03T02:02:12.116Z,93.35
2023-01-03T02:03:12.174Z,93.87
2023-01-03T02:04:12.055Z,93.98
2023-01-03T02:05:12.043Z,94.23
2023-01-03T02:06:12.037Z,94.43
2023-01-03T02:07:12.033Z,94.59
2023-01-03T02:08:12.029Z,94.70
2023-01-03T02:09:12.027Z,94.84
2023-01-03T02:10:12.041Z,94.02
2023-01-03T02:11:12.021Z,94.02
2023-01-03T02:12:12.021Z,93.81
2023-01-03T02:13:12.011Z,94.12
2023-01-03T02:14:12.026Z,92.88
2023-01-03T02:15:11.998Z,92.72
2023-01-03T02:16:12.125Z,92.31
2023-01-03T02:17:12.031Z,92.82
2023-01-03T02:18:11.991Z,92.10
2023-01-03T02:19:11.999Z,91.42
2023-01-03T02:20:11.985Z,92.04
2023-01-03T02:21:16.905Z,92.25
2023-01-03T02:22:11.976Z,93.07
2023-01-03T02:23:11.964Z,93.07
2023-01-03T02:24:11.964Z,93.07
2023-01-03T02:25:11.954Z,92.86
2023-01-03T02:26:11.951Z,92.04
2023-01-03T02:27:11.943Z,91.63
2023-01-03T02:28:11.943Z,91.46
2023-01-03T02:29:11.945Z,92.19
2023-01-03T02:30:11.952Z,93.01
2023-01-03T02:31:11.945Z,93.12
2023-01-03T02:32:11.925Z,92.97
2023-01-03T02:33:11.919Z,93.28
2023-01-03T02:34:11.915Z,92.91
2023-01-03T02:35:11.929Z,92.08
2023-01-03T02:36:11.914Z,90.84
2023-01-03T02:37:11.912Z,90.06
2023-01-03T02:38:11.896Z,89.38
2023-01-03T02:39:11.890Z,89.69
2023-01-03T02:40:11.897Z,89.89
2023-01-03T02:41:11.882Z,90.35
2023-01-03T02:42:11.882Z,89.94
2023-01-03T02:43:11.871Z,90.19
2023-01-03T02:44:11.883Z,89.46
2023-01-03T02:45:11.865Z,90.19
2023-01-03T02:46:11.933Z,90.50
2023-01-03T02:47:11.857Z,90.08
2023-01-03T02:48:11.850Z,90.02
2023-01-03T02:49:11.846Z,90.33
2023-01-03T02:50:11.842Z,90.44
2023-01-03T02:51:11.843Z,90.44
2023-01-03T02:52:11.836Z,90.23
2023-01-03T02:53:12.077Z,90.02
2023-01-03T02:54:11.826Z,90.23
2023-01-03T02:55:11.820Z,90.06
2023-01-03T02:56:11.814Z,90.26
2023-01-03T02:57:11.805Z,90.93
2023-01-03T02:58:11.806Z,91.82
2023-01-03T02:59:11.800Z,91.66
2023-01-03T03:00:11.793Z,91.24
2023-01-03T03:01:11.887Z,90.62
2023-01-03T03:02:12.028Z,90.72
2023-01-03T03:03:11.961Z,91.03
2023-01-03T03:04:11.775Z,91.76
2023-01-03T03:05:11.769Z,92.18
2023-01-03T03:06:11.764Z,92.69
2023-01-03T03:07:11.760Z,93.00
2023-01-03T03:08:11.882Z,92.49
2023-01-03T03:09:11.752Z,92.59
2023-01-03T03:10:11.746Z,92.44
2023-01-03T03:11:11.784Z,92.65
2023-01-03T03:12:11.738Z,93.16
2023-01-03T03:13:11.731Z,92.65
2023-01-03T03:14:11.727Z,93.37
2023-01-03T03:15:11.721Z,93.43
2023-01-03T03:16:11.779Z,93.43
2023-01-03T03:17:11.712Z,93.54
2023-01-03T03:18:11.727Z,93.33
2023-01-03T03:19:11.700Z,93.74
2023-01-03T03:20:11.696Z,94.57
2023-01-03T03:21:11.689Z,94.37
2023-01-03T03:22:11.683Z,94.47
2023-01-03T03:23:11.678Z,94.12
2023-01-03T03:24:11.675Z,94.32
2023-01-03T03:25:11.672Z,94.43
2023-01-03T03:26:11.679Z,93.18
2023-01-03T03:27:11.665Z,91.63
2023-01-03T03:28:11.665Z,90.02
2023-01-03T03:29:11.648Z,88.98
2023-01-03T03:30:11.646Z,89.40
2023-01-03T03:31:11.743Z,89.75
2023-01-03T03:32:11.635Z,90.26
2023-01-03T03:33:11.630Z,91.47
2023-01-03T03:34:11.652Z,90.99
2023-01-03T03:35:11.622Z,90.68
2023-01-03T03:36:11.616Z,89.96
2023-01-03T03:37:11.610Z,89.58
2023-01-03T03:38:11.617Z,89.58
2023-01-03T03:39:11.606Z,90.20
2023-01-03T03:40:11.600Z,91.35
2023-01-03T03:41:11.592Z,91.45
2023-01-03T03:42:11.591Z,91.45
2023-01-03T03:43:11.580Z,92.38
2023-01-03T03:44:11.575Z,92.28
2023-01-03T03:45:11.572Z,91.55
2023-01-03T03:46:11.597Z,91.03
2023-01-03T03:47:11.661Z,90.00
2023-01-03T03:48:11.556Z,89.48
2023-01-03T03:49:11.551Z,89.52
2023-01-03T03:50:11.620Z,89.83
2023-01-03T03:51:11.538Z,90.35
2023-01-03T03:52:11.533Z,90.70
2023-01-03T03:53:11.879Z,91.74
2023-01-03T03:54:11.522Z,90.81
2023-01-03T03:55:11.528Z,90.60
2023-01-03T03:56:11.522Z,90.39
2023-01-03T03:57:11.517Z,90.60
2023-01-03T03:58:11.520Z,90.39
2023-01-03T03:59:11.512Z,90.70
2023-01-03T04:00:11.496Z,91.43
2023-01-03T04:01:11.551Z,91.06
2023-01-03T04:02:11.658Z,90.54
2023-01-03T04:03:11.811Z,90.33
2023-01-03T04:04:11.490Z,89.86
2023-01-03T04:05:11.484Z,89.61
2023-01-03T04:06:11.501Z,90.44
2023-01-03T04:07:11.456Z,91.06
2023-01-03T04:08:11.474Z,91.37
2023-01-03T04:09:11.450Z,91.58
2023-01-03T04:10:11.443Z,90.44
2023-01-03T04:11:11.436Z,90.17
2023-01-03T04:12:11.437Z,90.58
2023-01-03T04:13:11.436Z,90.69
2023-01-03T04:14:11.430Z,91.41
2023-01-03T04:15:11.413Z,91.41
2023-01-03T04:16:11.491Z,91.62
2023-01-03T04:17:11.403Z,91.72
2023-01-03T04:18:11.398Z,92.35
2023-01-03T04:19:11.396Z,92.97
2023-01-03T04:20:11.395Z,93.33
2023-01-03T04:21:17.032Z,93.54
2023-01-03T04:22:11.399Z,93.65
2023-01-03T04:23:11.374Z,93.75
2023-01-03T04:24:11.367Z,93.54
2023-01-03T04:25:11.362Z,92.20
2023-01-03T04:26:11.362Z,91.89
2023-01-03T04:27:11.350Z,90.44
2023-01-03T04:28:11.351Z,89.65
2023-01-03T04:29:11.341Z,89.65
2023-01-03T04:30:11.354Z,89.75
2023-01-03T04:31:11.408Z,90.27
2023-01-03T04:32:11.419Z,91.03
2023-01-03T04:33:11.327Z,91.14
2023-01-03T04:34:11.328Z,91.35
2023-01-03T04:35:11.321Z,91.14
2023-01-03T04:36:11.305Z,91.60
2023-01-03T04:37:11.295Z,91.80
2023-01-03T04:38:11.314Z,92.05
2023-01-03T04:39:11.306Z,92.47
2023-01-03T04:40:11.292Z,93.30
2023-01-03T04:41:11.276Z,93.51
2023-01-03T04:42:11.271Z,93.72
2023-01-03T04:43:11.268Z,94.18
2023-01-03T04:44:11.260Z,94.45
2023-01-03T04:45:11.252Z,94.65
2023-01-03T04:46:11.330Z,95.28
2023-01-03T04:47:11.243Z,94.96
2023-01-03T04:48:11.235Z,95.28
2023-01-03T04:49:11.232Z,95.07
2023-01-03T04:50:11.228Z,95.17
2023-01-03T04:51:11.225Z,95.28
2023-01-03T04:52:11.216Z,95.17
2023-01-03T04:53:11.566Z,95.07
2023-01-03T04:54:11.226Z,94.96
2023-01-03T04:55:11.199Z,95.07
2023-01-03T04:56:11.200Z,93.82
2023-01-03T04:57:11.191Z,93.30
2023-01-03T04:58:11.182Z,92.61
2023-01-03T04:59:11.175Z,92.82
2023-01-03T05:00:11.180Z,93.55
2023-01-03T05:01:11.304Z,93.55
2023-01-03T05:02:11.436Z,94.18
2023-01-03T05:03:11.159Z,93.97
2023-01-03T05:04:11.227Z,94.80
2023-01-03T05:05:11.150Z,94.80
2023-01-03T05:06:11.141Z,95.21
2023-01-03T05:07:11.147Z,94.80
2023-01-03T05:08:11.127Z,94.90
2023-01-03T05:09:11.121Z,94.80
2023-01-03T05:10:11.131Z,94.74
2023-01-03T05:11:11.144Z,94.80
2023-01-03T05:12:11.101Z,94.49
2023-01-03T05:13:11.098Z,95.01
2023-01-03T05:14:14.517Z,95.11
2023-01-03T05:15:11.095Z,95.53
2023-01-03T05:16:11.194Z,94.90
2023-01-03T05:17:11.076Z,95.48
2023-01-03T05:18:11.066Z,95.32
2023-01-03T05:19:11.068Z,95.21
2023-01-03T05:20:11.060Z,95.21
2023-01-03T05:21:11.053Z,95.63
2023-01-03T05:22:11.050Z,96.00
2023-01-03T05:23:11.049Z,96.94
2023-01-03T05:24:11.039Z,96.94
2023-01-03T05:25:11.034Z,97.14
2023-01-03T05:26:11.067Z,97.14
2023-01-03T05:27:11.019Z,97.41
2023-01-03T05:28:17.122Z,97.62
2023-01-03T05:29:11.007Z,98.14
2023-01-03T05:30:11.007Z,97.72
2023-01-03T05:31:10.998Z,98.20
2023-01-03T05:32:11.037Z,97.99
2023-01-03T05:33:10.992Z,98.20
2023-01-03T05:34:10.984Z,97.68
2023-01-03T05:35:10.973Z,98.10
2023-01-03T05:36:10.993Z,97.58
2023-01-03T05:37:10.966Z,97.89
2023-01-03T05:38:10.958Z,98.30
2023-01-03T05:39:10.955Z,98.10
2023-01-03T05:40:10.959Z,97.99
2023-01-03T05:41:10.946Z,97.64
2023-01-03T05:42:10.952Z,97.99
2023-01-03T05:43:10.928Z,97.58
2023-01-03T05:44:10.923Z,97.74
2023-01-03T05:45:10.919Z,97.74
2023-01-03T05:46:10.986Z,97.85
2023-01-03T05:47:10.905Z,98.26
2023-01-03T05:48:10.901Z,97.85
2023-01-03T05:49:10.898Z,97.33
2023-01-03T05:50:10.889Z,97.22
2023-01-03T05:51:10.887Z,96.81
2023-01-03T05:52:10.879Z,96.91
2023-01-03T05:53:10.887Z,95.87
2023-01-03T05:54:10.869Z,95.36
2023-01-03T05:55:10.864Z,95.46
2023-01-03T05:56:10.857Z,95.15
2023-01-03T05:57:10.867Z,95.19
2023-01-03T05:58:10.861Z,95.19
2023-01-03T05:59:10.838Z,95.40
2023-01-03T06:00:10.834Z,95.61
2023-01-03T06:01:10.881Z,94.88
2023-01-03T06:02:10.966Z,94.98
2023-01-03T06:03:10.891Z,95.19
2023-01-03T06:04:10.920Z,95.19
2023-01-03T06:05:10.806Z,95.29
2023-01-03T06:06:10.800Z,95.09
2023-01-03T06:07:10.792Z,95.34
2023-01-03T06:08:10.787Z,94.92
2023-01-03T06:09:10.790Z,94.82
2023-01-03T06:10:10.779Z,94.92
2023-01-03T06:11:10.772Z,94.71
2023-01-03T06:12:10.771Z,94.65
2023-01-03T06:13:10.763Z,94.96
2023-01-03T06:14:10.800Z,95.17
2023-01-03T06:15:10.772Z,95.17
2023-01-03T06:16:10.810Z,95.59
2023-01-03T06:17:10.844Z,96.00
2023-01-03T06:18:10.739Z,95.90
2023-01-03T06:19:10.736Z,96.52
2023-01-03T06:20:10.720Z,96.57
2023-01-03T06:21:10.715Z,96.57
2023-01-03T06:22:11.376Z,96.83
2023-01-03T06:23:10.703Z,96.42
2023-01-03T06:24:10.709Z,96.83
2023-01-03T06:25:10.722Z,96.83
2023-01-03T06:26:10.685Z,96.94
2023-01-03T06:27:10.680Z,97.25
2023-01-03T06:28:10.672Z,97.25
2023-01-03T06:29:10.675Z,97.41
2023-01-03T06:30:10.692Z,98.03
2023-01-03T06:31:10.827Z,97.93
2023-01-03T06:32:10.654Z,97.62
2023-01-03T06:33:10.647Z,97.99
2023-01-03T06:34:10.649Z,97.89
2023-01-03T06:35:10.644Z,97.99
2023-01-03T06:36:10.637Z,97.99
2023-01-03T06:37:10.627Z,97.68
2023-01-03T06:38:10.623Z,98.16
2023-01-03T06:39:10.615Z,97.95
2023-01-03T06:40:10.610Z,97.95
2023-01-03T06:41:10.602Z,97.80
2023-01-03T06:42:10.611Z,98.05
2023-01-03T06:43:10.588Z,98.26
2023-01-03T06:44:10.580Z,98.16
2023-01-03T06:45:10.583Z,98.11
2023-01-03T06:46:10.657Z,98.11
2023-01-03T06:47:10.570Z,98.00
2023-01-03T06:48:10.559Z,97.90
2023-01-03T06:49:10.557Z,97.80
2023-01-03T06:50:10.547Z,97.80
2023-01-03T06:51:10.569Z,98.11
2023-01-03T06:52:10.545Z,98.21
2023-01-03T06:53:10.567Z,98.27
2023-01-03T06:54:10.525Z,98.48
2023-01-03T06:55:10.521Z,98.27
2023-01-03T06:56:10.516Z,98.38
2023-01-03T06:57:10.509Z,98.11
2023-01-03T06:58:10.909Z,98.07
2023-01-03T06:59:10.501Z,98.00
2023-01-03T07:00:10.503Z,98.48
2023-01-03T07:01:10.655Z,98.17
2023-01-03T07:02:10.756Z,98.69
2023-01-03T07:03:11.620Z,98.48
2023-01-03T07:04:10.536Z,98.69
2023-01-03T07:05:10.463Z,98.69
2023-01-03T07:06:10.460Z,98.90
2023-01-03T07:07:10.453Z,98.54
2023-01-03T07:08:10.458Z,98.74
2023-01-03T07:09:10.448Z,98.74
2023-01-03T07:10:10.436Z,98.64
2023-01-03T07:11:10.431Z,98.54
2023-01-03T07:12:10.465Z,98.74
2023-01-03T07:13:10.448Z,98.74
2023-01-03T07:14:10.427Z,98.85
2023-01-03T07:15:10.426Z,99.26
2023-01-03T07:16:10.490Z,99.57
2023-01-03T07:17:10.400Z,99.37
2023-01-03T07:18:10.408Z,99.43
2023-01-03T07:19:10.388Z,99.37
2023-01-03T07:20:10.385Z,99.16
2023-01-03T07:21:10.392Z,99.01
2023-01-03T07:22:10.382Z,99.01
2023-01-03T07:23:10.367Z,99.52
2023-01-03T07:24:10.362Z,99.52
2023-01-03T07:25:10.356Z,99.99
2023-01-03T07:26:10.348Z,99.58
2023-01-03T07:27:10.346Z,99.69
2023-01-03T07:28:11.203Z,99.99
2023-01-03T07:29:10.400Z,99.99
2023-01-03T07:30:10.345Z,99.99
2023-01-03T07:31:10.368Z,99.99
2023-01-03T07:32:10.316Z,99.99
2023-01-03T07:33:10.327Z,99.99
2023-01-03T07:34:10.331Z,99.99
2023-01-03T07:35:10.306Z,99.99
2023-01-03T07:36:12.134Z,99.99
2023-01-03T07:37:10.292Z,99.99
2023-01-03T07:38:10.298Z,99.99
2023-01-03T07:39:10.280Z,99.99
2023-01-03T07:40:10.279Z,99.99
2023-01-03T07:41:10.271Z,99.99
2023-01-03T07:42:10.283Z,99.99
2023-01-03T07:43:10.254Z,99.99
2023-01-03T07:44:10.254Z,99.99
2023-01-03T07:45:10.251Z,99.99
2023-01-03T07:46:10.316Z,99.99
2023-01-03T07:47:10.251Z,99.99
2023-01-03T07:48:10.231Z,99.99
2023-01-03T07:49:12.147Z,99.99
2023-01-03T07:50:10.245Z,99.99
2023-01-03T07:51:10.210Z,99.99
2023-01-03T07:52:10.208Z,99.99
2023-01-03T07:53:10.209Z,99.99
2023-01-03T07:54:10.194Z,99.99
2023-01-03T07:55:10.203Z,99.99
2023-01-03T07:56:13.199Z,99.99
2023-01-03T07:57:10.190Z,99.99
2023-01-03T07:58:10.425Z,99.99
2023-01-03T07:59:10.174Z,99.99
2023-01-03T08:00:10.165Z,99.99
2023-01-03T08:01:10.326Z,99.99
2023-01-03T08:02:10.319Z,99.99
2023-01-03T08:03:11.373Z,99.99
2023-01-03T08:04:10.189Z,99.99
2023-01-03T08:05:10.269Z,99.99
2023-01-03T08:06:10.220Z,99.99
2023-01-03T08:07:10.129Z,99.99
2023-01-03T08:08:10.121Z,99.99
2023-01-03T08:09:10.129Z,99.99
2023-01-03T08:10:10.117Z,99.99
2023-01-03T08:11:10.111Z,99.99
2023-01-03T08:12:10.101Z,99.99
2023-01-03T08:13:10.099Z,99.99
2023-01-03T08:14:10.092Z,99.99
2023-01-03T08:15:10.087Z,99.99
2023-01-03T08:16:10.147Z,99.99
2023-01-03T08:17:10.088Z,99.99
2023-01-03T08:18:10.072Z,99.99
2023-01-03T08:19:10.067Z,99.99
2023-01-03T08:20:10.065Z,99.99
2023-01-03T08:21:10.071Z,99.99
2023-01-03T08:22:10.084Z,99.99
2023-01-03T08:23:10.063Z,99.99
2023-01-03T08:24:10.055Z,99.99
2023-01-03T08:25:10.059Z,99.99
2023-01-03T08:26:10.032Z,99.99
2023-01-03T08:27:10.034Z,99.99
2023-01-03T08:28:10.025Z,99.99
2023-01-03T08:29:10.022Z,99.99
2023-01-03T08:30:10.010Z,99.99
2023-01-03T08:31:10.084Z,99.99
2023-01-03T08:32:10.008Z,99.99
2023-01-03T08:33:10.007Z,99.99
2023-01-03T08:34:16.100Z,99.99
2023-01-03T08:35:09.995Z,99.99
2023-01-03T08:36:09.981Z,99.99
2023-01-03T08:37:09.976Z,99.99
2023-01-03T08:38:10.034Z,99.99
2023-01-03T08:39:09.966Z,99.99
2023-01-03T08:40:09.958Z,99.99
2023-01-03T08:41:09.959Z,99.99
2023-01-03T08:42:09.976Z,99.99
2023-01-03T08:43:09.950Z,99.99
2023-01-03T08:44:09.945Z,99.99
2023-01-03T08:45:09.937Z,99.99
2023-01-03T08:46:10.022Z,99.99
2023-01-03T08:47:10.037Z,99.99
2023-01-03T08:48:09.950Z,99.99
2023-01-03T08:49:09.919Z,99.99
2023-01-03T08:50:09.925Z,99.99
2023-01-03T08:51:09.905Z,99.99
2023-01-03T08:52:09.905Z,99.99
2023-01-03T08:53:09.900Z,99.99
2023-01-03T08:54:09.909Z,99.99
2023-01-03T08:55:09.893Z,99.99
2023-01-03T08:56:09.886Z,99.99
2023-01-03T08:57:09.955Z,99.99
2023-01-03T08:58:09.872Z,99.99
2023-01-03T08:59:09.873Z,99.99
2023-01-03T09:00:09.867Z,99.99
2023-01-03T09:01:09.912Z,99.99
2023-01-03T09:02:10.092Z,99.99
2023-01-03T09:03:10.282Z,99.99
2023-01-03T09:04:09.990Z,99.99
2023-01-03T09:05:09.836Z,99.99
2023-01-03T09:06:09.841Z,99.99
2023-01-03T09:07:09.828Z,99.99
2023-01-03T09:08:09.830Z,99.99
2023-01-03T09:09:09.815Z,99.99
2023-01-03T09:10:09.869Z,99.99
2023-01-03T09:11:09.806Z,99.99
2023-01-03T09:12:09.807Z,99.99
2023-01-03T09:13:09.795Z,99.99
2023-01-03T09:14:09.793Z,99.99
2023-01-03T09:15:09.791Z,99.99
2023-01-03T09:16:09.831Z,99.99
2023-01-03T09:17:09.786Z,99.99
2023-01-03T09:18:09.785Z,99.99
2023-01-03T09:19:09.778Z,99.99
2023-01-03T09:20:09.767Z,99.99
2023-01-03T09:21:09.767Z,99.99
2023-01-03T09:22:09.777Z,99.99
2023-01-03T09:23:09.750Z,99.99
2023-01-03T09:24:09.753Z,99.99
2023-01-03T09:25:09.743Z,99.99
2023-01-03T09:26:09.761Z,99.99
2023-01-03T09:27:09.734Z,99.99
2023-01-03T09:28:09.730Z,99.99
2023-01-03T09:29:09.724Z,99.99
2023-01-03T09:30:09.717Z,99.99
2023-01-03T09:31:09.778Z,99.99
2023-01-03T09:32:09.756Z,99.99
2023-01-03T09:33:09.701Z,99.99
2023-01-03T09:34:09.700Z,99.99
2023-01-03T09:35:09.721Z,99.99
2023-01-03T09:36:09.699Z,99.99
2023-01-03T09:37:09.691Z,99.99
2023-01-03T09:38:09.691Z,99.99
2023-01-03T09:39:09.673Z,99.99
2023-01-03T09:40:09.671Z,99.99
2023-01-03T09:41:09.668Z,99.99
2023-01-03T09:42:09.677Z,99.99
2023-01-03T09:43:09.662Z,99.99
2023-01-03T09:44:09.660Z,99.99
2023-01-03T09:45:09.657Z,99.99
2023-01-03T09:46:09.649Z,99.99
2023-01-03T09:47:09.683Z,99.99
2023-01-03T09:48:09.632Z,99.99
2023-01-03T09:49:09.626Z,99.99
2023-01-03T09:50:50.912Z,99.99
2023-01-03T09:51:29.710Z,99.99
2023-01-03T09:52:09.614Z,99.99
2023-01-03T09:53:09.610Z,99.99
2023-01-03T09:54:09.601Z,99.99
2023-01-03T09:55:09.598Z,99.99
2023-01-03T09:56:09.593Z,99.99
2023-01-03T09:57:09.595Z,99.99
2023-01-03T09:58:09.605Z,99.99
2023-01-03T09:59:09.573Z,99.99
2023-01-03T10:00:09.572Z,99.99
2023-01-03T10:01:09.748Z,99.99
2023-01-03T10:02:09.907Z,99.99
2023-01-03T10:03:09.834Z,99.99
2023-01-03T10:04:09.554Z,99.99
2023-01-03T10:05:09.554Z,99.99
2023-01-03T10:06:09.577Z,99.99
2023-01-03T10:07:09.539Z,99.99
2023-01-03T10:08:09.544Z,99.99
2023-01-03T10:09:09.549Z,99.99
2023-01-03T10:10:14.259Z,99.99
2023-01-03T10:11:09.539Z,99.99
2023-01-03T10:12:09.547Z,99.99
2023-01-03T10:13:13.470Z,99.99
2023-01-03T10:14:09.523Z,99.99
2023-01-03T10:15:09.526Z,99.99
2023-01-03T10:16:09.592Z,99.99
2023-01-03T10:17:09.521Z,99.99
2023-01-03T10:18:09.487Z,99.99
2023-01-03T10:19:09.491Z,99.99
2023-01-03T10:20:09.480Z,99.99
2023-01-03T10:21:09.472Z,99.99
2023-01-03T10:22:09.476Z,99.99
2023-01-03T10:23:09.464Z,99.99
2023-01-03T10:24:09.457Z,99.99
2023-01-03T10:25:09.453Z,99.99
2023-01-03T10:26:09.459Z,99.99
2023-01-03T10:27:09.461Z,99.99
2023-01-03T10:28:09.441Z,99.99
2023-01-03T10:29:09.433Z,99.99
2023-01-03T10:30:09.459Z,99.99
2023-01-03T10:31:09.424Z,99.99
2023-01-03T10:32:09.446Z,99.99
2023-01-03T10:33:09.417Z,99.99
2023-01-03T10:34:09.423Z,99.99
2023-01-03T10:35:09.410Z,99.99
2023-01-03T10:36:09.477Z,99.99
2023-01-03T10:37:09.400Z,99.99
2023-01-03T10:38:09.397Z,99.99
2023-01-03T10:39:09.389Z,99.99
2023-01-03T10:40:09.391Z,99.99
2023-01-03T10:41:09.380Z,99.99
2023-01-03T10:42:09.374Z,99.99
2023-01-03T10:43:09.370Z,99.99
2023-01-03T10:44:09.368Z,99.99
2023-01-03T10:45:09.362Z,99.99
2023-01-03T10:46:09.456Z,99.99
2023-01-03T10:47:09.350Z,99.99
2023-01-03T10:48:09.347Z,99.99
2023-01-03T10:49:39.169Z,99.99
2023-01-03T10:50:09.339Z,99.99
2023-01-03T10:51:09.334Z,99.99
2023-01-03T10:52:09.342Z,99.99
2023-01-03T10:53:09.329Z,99.99
2023-01-03T10:54:09.321Z,99.99
2023-01-03T10:55:09.316Z,99.99
2023-01-03T10:56:09.313Z,99.99
2023-01-03T10:57:09.321Z,99.99
2023-01-03T10:58:09.313Z,99.99
2023-01-03T10:59:09.315Z,99.99
2023-01-03T11:00:09.308Z,99.99
2023-01-03T11:01:09.457Z,99.99
2023-01-03T11:02:09.605Z,99.99
2023-01-03T11:03:09.856Z,99.99
2023-01-03T11:04:09.284Z,99.99
2023-01-03T11:05:09.272Z,99.99
2023-01-03T11:06:09.269Z,99.99
2023-01-03T11:07:09.260Z,99.99
2023-01-03T11:08:09.275Z,99.99
2023-01-03T11:09:09.252Z,99.99
2023-01-03T11:10:09.258Z,99.99
2023-01-03T11:11:09.242Z,99.99
2023-01-03T11:12:09.241Z,99.99
2023-01-03T11:13:09.235Z,99.99
2023-01-03T11:14:09.236Z,99.99
2023-01-03T11:15:09.225Z,99.99
2023-01-03T11:16:09.359Z,99.99
2023-01-03T11:17:09.240Z,99.99
2023-01-03T11:18:09.252Z,99.99
2023-01-03T11:19:09.208Z,99.99
2023-01-03T11:20:09.211Z,99.99
2023-01-03T11:21:09.202Z,99.99
2023-01-03T11:22:09.197Z,99.99
2023-01-03T11:23:09.194Z,99.99
2023-01-03T11:24:09.188Z,99.99
2023-01-03T11:25:09.182Z,99.99
2023-01-03T11:26:09.180Z,99.99
2023-01-03T11:27:09.180Z,99.99
2023-01-03T11:28:15.585Z,99.99
2023-01-03T11:29:09.171Z,99.99
2023-01-03T11:30:09.165Z,99.99
2023-01-03T11:31:09.154Z,99.99
2023-01-03T11:32:09.219Z,99.99
2023-01-03T11:33:09.153Z,99.99
2023-01-03T11:34:09.166Z,99.99
2023-01-03T11:35:23.019Z,99.99
2023-01-03T11:36:09.138Z,99.99
2023-01-03T11:37:09.131Z,99.99
2023-01-03T11:38:09.127Z,99.99
2023-01-03T11:39:14.793Z,99.99
2023-01-03T11:40:09.141Z,99.99
2023-01-03T11:41:09.124Z,99.99
2023-01-03T11:42:09.127Z,99.99
2023-01-03T11:43:09.107Z,99.99
2023-01-03T11:44:09.104Z,99.99
2023-01-03T11:45:09.097Z,99.99
2023-01-03T11:46:09.115Z,99.99
2023-01-03T11:47:09.088Z,99.99
2023-01-03T11:48:09.085Z,99.99
2023-01-03T11:49:09.078Z,99.99
2023-01-03T11:50:09.106Z,99.99
2023-01-03T11:51:09.069Z,99.99
2023-01-03T11:52:09.069Z,99.99
2023-01-03T11:53:09.062Z,99.99
2023-01-03T11:54:09.057Z,99.99
2023-01-03T11:55:09.054Z,99.99
2023-01-03T11:56:09.050Z,99.99
2023-01-03T11:57:09.088Z,99.99
2023-01-03T11:58:09.052Z,99.99
2023-01-03T11:59:09.036Z,99.99
2023-01-03T12:00:09.041Z,99.99
2023-01-03T12:01:09.097Z,99.99
2023-01-03T12:02:09.256Z,99.99
2023-01-03T12:03:09.344Z,99.99
2023-01-03T12:04:09.141Z,99.99
2023-01-03T12:05:09.016Z,99.99
2023-01-03T12:06:09.040Z,99.99
2023-01-03T12:07:45.881Z,99.99
2023-01-03T12:08:09.005Z,99.88
2023-01-03T12:09:08.996Z,99.52
2023-01-03T12:10:08.993Z,99.26
2023-01-03T12:11:08.989Z,98.24
2023-01-03T12:12:08.988Z,98.03
2023-01-03T12:13:08.981Z,98.08
2023-01-03T12:14:08.974Z,98.29
2023-01-03T12:15:08.973Z,97.88
2023-01-03T12:16:09.118Z,98.50
2023-01-03T12:17:08.962Z,98.60
2023-01-03T12:18:08.976Z,97.78
2023-01-03T12:19:12.546Z,98.19
2023-01-03T12:20:08.954Z,97.88
2023-01-03T12:21:08.951Z,97.47
2023-01-03T12:22:08.964Z,97.67
2023-01-03T12:23:08.963Z,97.42
2023-01-03T12:24:08.938Z,97.02
2023-01-03T12:25:08.947Z,97.22
2023-01-03T12:26:08.928Z,97.42
2023-01-03T12:27:08.941Z,97.63
2023-01-03T12:28:08.920Z,97.42
2023-01-03T12:29:08.929Z,96.81
2023-01-03T12:30:08.920Z,96.19
2023-01-03T12:31:09.012Z,96.30
2023-01-03T12:32:08.917Z,96.30
2023-01-03T12:33:08.898Z,96.19
2023-01-03T12:34:08.899Z,95.89
2023-01-03T12:35:08.888Z,95.68
2023-01-03T12:36:08.887Z,95.47
2023-01-03T12:37:08.880Z,95.57
2023-01-03T12:38:08.898Z,95.47
2023-01-03T12:39:08.869Z,95.17
2023-01-03T12:40:08.903Z,95.47
2023-01-03T12:41:08.865Z,94.65
2023-01-03T12:42:08.860Z,93.93
2023-01-03T12:43:08.857Z,94.14
2023-01-03T12:44:08.858Z,93.83
2023-01-03T12:45:08.847Z,93.83
2023-01-03T12:46:12.889Z,93.73
2023-01-03T12:47:08.944Z,92.50
2023-01-03T12:48:08.841Z,92.40
2023-01-03T12:49:08.839Z,91.88
2023-01-03T12:50:08.874Z,92.60
2023-01-03T12:51:08.825Z,92.60
2023-01-03T12:52:11.559Z,93.59
2023-01-03T12:53:08.812Z,93.52